Nearby METAR Reports

 

KSJC - San Jose, California, USA
Distance from station: NE 9mi, 14km
Updated: Fri, 20-Apr-2018 4:53pm EDT
Few Clouds
Few Clouds
 Wind from WNW
Wind: WNW 12 mph , 19 km/h
Temperature: 75°F , 24°C
Dew Point: 43°F , 6°C
Humidity: 31%
Barometer: 30.14 inHg , 1020.7 hPa
Clouds: Few Clouds
Visibility: 10 miles , 16 km
Cloud details: Few Clouds 3500 ft
2018/04/20 20:53 KSJC 202053Z 29010KT 10SM FEW035 24/06 A3014 RMK AO2 SLP206 T02390061 56014
KNUQ - Moffett Nas/Mtn, California, USA
Distance from station: N 9mi, 14km
Updated: Fri, 20-Apr-2018 4:56pm EDT
Clear
Clear
 Wind from N
Wind: N 12 mph , 19 km/h
Temperature: 72°F , 22°C
Dew Point: 48°F , 9°C
Humidity: 44%
Barometer: 30.15 inHg , 1021 hPa
Clouds: Clear
Visibility: 10 miles , 16 km
2018/04/20 20:56 KNUQ 202056Z 35010KT 10SM CLR 22/09 A3015 RMK AO2 SLP213 T02220094 58012
 
KPAO - Palo Alto, California, USA
Distance from station: NNW 14mi, 23km
Updated: Fri, 20-Apr-2018 4:47pm EDT
Clear
Clear
 Wind from NNW
Wind: NNW 9 mph , 15 km/h
Barometer: 30.15 inHg , 1021 hPa
Clouds: Clear
Visibility: 10 miles , 16 km
2018/04/20 20:47 KPAO 202047Z 34008KT 10SM SKC A3015
KRHV - San Jose/Reid, California, USA
Distance from station: ENE 12mi, 19km
Updated: Fri, 20-Apr-2018 4:47pm EDT
Clear
Clear
 Wind from WNW
Wind: WNW 14 mph , 22 km/h
Temperature: 75°F , 24°C
Dew Point: 46°F , 8°C
Humidity: 36%
Barometer: 30.12 inHg , 1020 hPa
Clouds: Clear
Visibility: 10 miles , 16 km
2018/04/20 20:47 KRHV 202047Z 30012KT 10SM SKC 24/08 A3012
 
KOAK - Oakland, California, USA
Distance from station: NNW 31mi, 50km
Updated: Fri, 20-Apr-2018 4:53pm EDT
Clear
Clear
 Wind from WNW
Wind: WNW 16 mph , 26 km/h
Temperature: 66°F , 19°C
Dew Point: 50°F , 10°C
Humidity: 56%
Barometer: 30.16 inHg , 1021.3 hPa
Clouds: Clear
Visibility: 10 miles , 16 km
2018/04/20 20:53 KOAK 202053Z 29014KT 10SM CLR 19/10 A3016 RMK AO2 SLP213 T01890100 58013
KSQL - San Carlos Airpo, California, USA
Distance from station: NW 21mi, 34km
Updated: Fri, 20-Apr-2018 4:47pm EDT
Clear
Clear
 Wind from N
Wind: N 12 mph , 19 km/h
Temperature: 72°F , 22°C
Dew Point: 48°F , 9°C
Humidity: 44%
Barometer: 30.15 inHg , 1021 hPa
Clouds: Clear
Visibility: 10 miles , 16 km
2018/04/20 20:47 KSQL 202047Z 35010KT 10SM SKC 22/09 A3015
 
KSFO - San Francisco, California, USA
Distance from station: NW 30mi, 49km
Updated: Fri, 20-Apr-2018 4:56pm EDT
Few Clouds
Few Clouds
 Wind from WNW
Wind: WNW 18 mph , 30 km/h
Temperature: 64°F , 18°C
Dew Point: 48°F , 9°C
Humidity: 56%
Barometer: 30.16 inHg , 1021.3 hPa
Clouds: Few Clouds
Visibility: 10 miles , 16 km
Cloud details: Few Clouds 800 ft
2018/04/20 20:56 KSFO 202056Z 29016KT 10SM FEW008 18/09 A3016 RMK AO2 SLP212 FOG IN GAP W T01830094 56009
KE16 - San Martin, California, USA
Distance from station: ESE 27mi, 43km
Updated: Fri, 20-Apr-2018 5:35pm EDT
Clear
Clear
 Wind from NNW
Wind: NNW 10 mph , 17 km/h, Gust: 20 mph , 31 km/h
Temperature: 75°F , 24°C
Dew Point: 39°F , 4°C
Humidity: 27%
Barometer: 30.14 inHg , 1020.7 hPa
Clouds: Clear
Visibility: 10 miles , 16 km
2018/04/20 21:35 KE16 202135Z AUTO 33009G17KT 10SM CLR 24/04 A3014 RMK AO2
 
KWVI - Watsonville, California, USA
Distance from station: SSE 27mi, 44km
Updated: Fri, 20-Apr-2018 4:53pm EDT
Clear
Clear
 Wind from S
Wind: S 7 mph , 11 km/h
Temperature: 61°F , 16°C
Dew Point: 52°F , 11°C
Humidity: 72%
Barometer: 30.18 inHg , 1022 hPa
Clouds: Clear
Visibility: 8 miles , 13 km
2018/04/20 20:53 KWVI 202053Z AUTO 18006KT 8SM CLR 16/11 A3018 RMK AO2 SLP219 T01560111 56008 TSNO
KHAF - Half Moon Bay, California, USA
Distance from station: WNW 31mi, 50km
Updated: Fri, 20-Apr-2018 5:40pm EDT
Mist, Partly cloudy
Mist, Partly cloudy
 Wind from NNW
Wind: NNW 13 mph , 20 km/h
Temperature: 55°F , 13°C
Dew Point: 50°F , 10°C
Humidity: 82%
Barometer: 30.21 inHg , 1023 hPa
Summary: Mist
Clouds: Partly cloudy
Visibility: 5 miles , 8 km
Cloud details: Partly cloudy 800 ft
2018/04/20 21:40 KHAF 202140Z AUTO 33011KT 5SM BR SCT008 13/10 A3021 RMK AO2
 
KHWD - Hayward, California, USA
Distance from station: N 28mi, 44km
Updated: Fri, 20-Apr-2018 4:54pm EDT
Clear
Clear
 Wind from WNW
Wind: WNW 13 mph , 20 km/h
Temperature: 72°F , 22°C
Dew Point: 50°F , 10°C
Humidity: 47%
Barometer: 30.15 inHg , 1021 hPa
Clouds: Clear
Visibility: 10 miles , 16 km
2018/04/20 20:54 KHWD 202054Z 29011KT 10SM CLR 22/10 A3015 RMK AO2 SLP219 T02170100 58012
KLVK - Livermore, California, USA
Distance from station: NNE 31mi, 51km
Updated: Fri, 20-Apr-2018 4:53pm EDT
Clear
Clear
 Wind from W
Wind: W 5 mph , 7 km/h
Temperature: 75°F , 24°C
Dew Point: 46°F , 8°C
Humidity: 36%
Barometer: 30.13 inHg , 1020.3 hPa
Clouds: Clear
Visibility: 8 miles , 13 km
2018/04/20 20:53 KLVK 202053Z 26004KT 8SM CLR 24/08 A3013 RMK AO2 SLP199 T02390078 58016